sensor_id;sensor_type;location;lat;lon;timestamp;P1;durP1;ratioP1;P2;durP2;ratioP2
33844;SDS011;20145;43.118;25.694;2023-09-18T00:01:04;8.32;;;3.50;;
33844;SDS011;20145;43.118;25.694;2023-09-18T00:03:31;8.23;;;3.65;;
33844;SDS011;20145;43.118;25.694;2023-09-18T00:05:58;8.32;;;3.70;;
33844;SDS011;20145;43.118;25.694;2023-09-18T00:08:24;5.30;;;3.92;;
33844;SDS011;20145;43.118;25.694;2023-09-18T00:10:50;6.63;;;3.03;;
33844;SDS011;20145;43.118;25.694;2023-09-18T00:13:20;6.47;;;3.47;;
33844;SDS011;20145;43.118;25.694;2023-09-18T00:15:47;5.53;;;3.22;;
33844;SDS011;20145;43.118;25.694;2023-09-18T00:18:16;5.43;;;3.40;;
33844;SDS011;20145;43.118;25.694;2023-09-18T00:20:42;3.63;;;3.30;;
33844;SDS011;20145;43.118;25.694;2023-09-18T00:23:09;5.70;;;3.53;;
33844;SDS011;20145;43.118;25.694;2023-09-18T00:25:35;6.32;;;3.60;;
33844;SDS011;20145;43.118;25.694;2023-09-18T00:28:01;5.00;;;3.25;;
33844;SDS011;20145;43.118;25.694;2023-09-18T00:30:27;4.32;;;3.08;;
33844;SDS011;20145;43.118;25.694;2023-09-18T00:32:54;6.03;;;3.53;;
33844;SDS011;20145;43.118;25.694;2023-09-18T00:35:20;3.75;;;3.25;;
33844;SDS011;20145;43.118;25.694;2023-09-18T00:37:47;7.25;;;3.85;;
33844;SDS011;20145;43.118;25.694;2023-09-18T00:40:13;4.45;;;3.38;;
33844;SDS011;20145;43.118;25.694;2023-09-18T00:42:38;6.93;;;4.07;;
33844;SDS011;20145;43.118;25.694;2023-09-18T00:45:05;6.90;;;3.95;;
33844;SDS011;20145;43.118;25.694;2023-09-18T00:47:31;6.25;;;3.67;;
33844;SDS011;20145;43.118;25.694;2023-09-18T00:49:57;7.07;;;4.18;;
33844;SDS011;20145;43.118;25.694;2023-09-18T00:52:23;7.03;;;3.13;;
33844;SDS011;20145;43.118;25.694;2023-09-18T00:54:50;3.67;;;3.17;;
33844;SDS011;20145;43.118;25.694;2023-09-18T00:57:17;8.05;;;3.90;;
33844;SDS011;20145;43.118;25.694;2023-09-18T00:59:44;5.38;;;3.53;;
33844;SDS011;20145;43.118;25.694;2023-09-18T01:02:10;5.60;;;3.65;;
33844;SDS011;20145;43.118;25.694;2023-09-18T01:04:36;6.35;;;4.07;;
33844;SDS011;20145;43.118;25.694;2023-09-18T01:07:03;4.43;;;4.00;;
33844;SDS011;20145;43.118;25.694;2023-09-18T01:09:31;4.63;;;3.60;;
33844;SDS011;20145;43.118;25.694;2023-09-18T01:17:11;6.03;;;4.10;;
33844;SDS011;20145;43.118;25.694;2023-09-18T01:19:42;6.30;;;3.88;;
33844;SDS011;20145;43.118;25.694;2023-09-18T01:22:13;6.03;;;3.83;;
33844;SDS011;20145;43.118;25.694;2023-09-18T01:24:43;6.70;;;3.80;;
33844;SDS011;20145;43.118;25.694;2023-09-18T01:27:12;6.35;;;3.85;;
33844;SDS011;20145;43.118;25.694;2023-09-18T01:32:08;6.70;;;3.88;;
33844;SDS011;20145;43.118;25.694;2023-09-18T01:34:35;3.83;;;3.42;;
33844;SDS011;20145;43.118;25.694;2023-09-18T01:37:12;7.45;;;3.88;;
33844;SDS011;20145;43.118;25.694;2023-09-18T01:39:41;5.13;;;3.45;;
33844;SDS011;20145;43.118;25.694;2023-09-18T01:42:07;5.35;;;4.00;;
33844;SDS011;20145;43.118;25.694;2023-09-18T01:44:36;4.57;;;3.78;;
33844;SDS011;20145;43.118;25.694;2023-09-18T01:47:08;5.28;;;3.45;;
33844;SDS011;20145;43.118;25.694;2023-09-18T01:49:36;4.90;;;3.55;;
33844;SDS011;20145;43.118;25.694;2023-09-18T01:52:04;4.70;;;3.33;;
33844;SDS011;20145;43.118;25.694;2023-09-18T01:54:32;4.25;;;3.60;;
33844;SDS011;20145;43.118;25.694;2023-09-18T01:56:59;6.88;;;4.28;;
33844;SDS011;20145;43.118;25.694;2023-09-18T01:59:25;6.75;;;3.47;;
33844;SDS011;20145;43.118;25.694;2023-09-18T02:01:51;4.63;;;3.50;;
33844;SDS011;20145;43.118;25.694;2023-09-18T02:04:17;6.13;;;4.03;;
33844;SDS011;20145;43.118;25.694;2023-09-18T02:06:44;6.03;;;3.45;;
33844;SDS011;20145;43.118;25.694;2023-09-18T02:09:13;5.45;;;3.75;;
33844;SDS011;20145;43.118;25.694;2023-09-18T02:11:41;5.22;;;3.78;;
33844;SDS011;20145;43.118;25.694;2023-09-18T02:14:10;5.97;;;3.88;;
33844;SDS011;20145;43.118;25.694;2023-09-18T02:16:37;7.97;;;4.50;;
33844;SDS011;20145;43.118;25.694;2023-09-18T02:19:07;4.88;;;4.10;;
33844;SDS011;20145;43.118;25.694;2023-09-18T02:21:34;4.13;;;3.08;;
33844;SDS011;20145;43.118;25.694;2023-09-18T02:23:59;4.32;;;3.53;;
33844;SDS011;20145;43.118;25.694;2023-09-18T02:26:25;4.97;;;3.47;;
33844;SDS011;20145;43.118;25.694;2023-09-18T02:28:52;4.88;;;3.55;;
33844;SDS011;20145;43.118;25.694;2023-09-18T02:31:19;5.22;;;3.47;;
33844;SDS011;20145;43.118;25.694;2023-09-18T02:33:46;5.03;;;3.67;;
33844;SDS011;20145;43.118;25.694;2023-09-18T02:36:13;5.10;;;3.50;;
33844;SDS011;20145;43.118;25.694;2023-09-18T02:38:39;5.65;;;3.85;;
33844;SDS011;20145;43.118;25.694;2023-09-18T02:41:05;6.03;;;3.42;;
33844;SDS011;20145;43.118;25.694;2023-09-18T02:43:30;3.88;;;3.58;;
33844;SDS011;20145;43.118;25.694;2023-09-18T02:45:56;6.13;;;3.50;;
33844;SDS011;20145;43.118;25.694;2023-09-18T02:48:23;5.20;;;3.47;;
33844;SDS011;20145;43.118;25.694;2023-09-18T02:50:48;6.30;;;3.72;;
33844;SDS011;20145;43.118;25.694;2023-09-18T02:53:22;4.53;;;3.78;;
33844;SDS011;20145;43.118;25.694;2023-09-18T02:55:50;4.72;;;4.28;;
33844;SDS011;20145;43.118;25.694;2023-09-18T02:58:17;5.13;;;4.10;;
33844;SDS011;20145;43.118;25.694;2023-09-18T03:00:46;5.00;;;4.10;;
33844;SDS011;20145;43.118;25.694;2023-09-18T03:03:13;5.97;;;3.75;;
33844;SDS011;20145;43.118;25.694;2023-09-18T03:05:40;6.43;;;3.83;;
33844;SDS011;20145;43.118;25.694;2023-09-18T03:08:07;5.95;;;4.20;;
33844;SDS011;20145;43.118;25.694;2023-09-18T03:10:37;5.22;;;3.88;;
33844;SDS011;20145;43.118;25.694;2023-09-18T03:13:07;5.15;;;3.67;;
33844;SDS011;20145;43.118;25.694;2023-09-18T03:15:34;6.03;;;3.90;;
33844;SDS011;20145;43.118;25.694;2023-09-18T03:18:01;4.60;;;3.88;;
33844;SDS011;20145;43.118;25.694;2023-09-18T03:20:27;5.65;;;4.20;;
33844;SDS011;20145;43.118;25.694;2023-09-18T03:22:57;6.65;;;4.15;;
33844;SDS011;20145;43.118;25.694;2023-09-18T03:25:24;6.05;;;4.13;;
33844;SDS011;20145;43.118;25.694;2023-09-18T03:27:53;8.32;;;4.57;;
33844;SDS011;20145;43.118;25.694;2023-09-18T03:30:20;4.65;;;4.25;;
33844;SDS011;20145;43.118;25.694;2023-09-18T03:32:48;6.03;;;4.28;;
33844;SDS011;20145;43.118;25.694;2023-09-18T03:35:15;5.60;;;4.32;;
33844;SDS011;20145;43.118;25.694;2023-09-18T03:37:44;5.20;;;4.45;;
33844;SDS011;20145;43.118;25.694;2023-09-18T03:40:13;6.18;;;4.45;;
33844;SDS011;20145;43.118;25.694;2023-09-18T03:42:39;7.22;;;4.72;;
33844;SDS011;20145;43.118;25.694;2023-09-18T03:45:05;8.00;;;4.75;;
33844;SDS011;20145;43.118;25.694;2023-09-18T03:47:35;7.57;;;5.28;;
33844;SDS011;20145;43.118;25.694;2023-09-18T03:50:02;8.52;;;4.68;;
33844;SDS011;20145;43.118;25.694;2023-09-18T03:52:28;8.02;;;4.45;;
33844;SDS011;20145;43.118;25.694;2023-09-18T03:54:54;6.43;;;4.55;;
33844;SDS011;20145;43.118;25.694;2023-09-18T03:57:20;10.32;;;4.85;;
33844;SDS011;20145;43.118;25.694;2023-09-18T03:59:46;5.85;;;4.85;;
33844;SDS011;20145;43.118;25.694;2023-09-18T04:02:12;6.78;;;5.55;;
33844;SDS011;20145;43.118;25.694;2023-09-18T04:04:38;7.43;;;4.38;;
33844;SDS011;20145;43.118;25.694;2023-09-18T04:07:07;11.20;;;5.05;;
33844;SDS011;20145;43.118;25.694;2023-09-18T04:09:34;6.05;;;4.38;;
33844;SDS011;20145;43.118;25.694;2023-09-18T04:12:02;9.50;;;4.40;;
33844;SDS011;20145;43.118;25.694;2023-09-18T04:14:31;4.30;;;3.90;;
33844;SDS011;20145;43.118;25.694;2023-09-18T04:16:59;5.15;;;4.60;;
33844;SDS011;20145;43.118;25.694;2023-09-18T04:19:28;9.10;;;4.10;;
33844;SDS011;20145;43.118;25.694;2023-09-18T04:21:54;8.35;;;4.03;;
33844;SDS011;20145;43.118;25.694;2023-09-18T04:24:19;5.60;;;4.47;;
33844;SDS011;20145;43.118;25.694;2023-09-18T04:26:45;10.32;;;5.43;;
33844;SDS011;20145;43.118;25.694;2023-09-18T04:29:11;12.25;;;5.35;;
33844;SDS011;20145;43.118;25.694;2023-09-18T04:31:36;9.60;;;5.10;;
33844;SDS011;20145;43.118;25.694;2023-09-18T04:34:03;5.72;;;4.00;;
33844;SDS011;20145;43.118;25.694;2023-09-18T04:36:29;5.28;;;3.70;;
33844;SDS011;20145;43.118;25.694;2023-09-18T04:38:55;4.57;;;3.60;;
33844;SDS011;20145;43.118;25.694;2023-09-18T04:41:20;4.97;;;3.30;;
33844;SDS011;20145;43.118;25.694;2023-09-18T04:43:46;7.90;;;3.45;;
33844;SDS011;20145;43.118;25.694;2023-09-18T04:46:11;13.27;;;4.68;;
33844;SDS011;20145;43.118;25.694;2023-09-18T04:48:37;16.92;;;4.20;;
33844;SDS011;20145;43.118;25.694;2023-09-18T04:51:03;8.65;;;3.88;;
33844;SDS011;20145;43.118;25.694;2023-09-18T04:53:29;11.30;;;4.95;;
33844;SDS011;20145;43.118;25.694;2023-09-18T04:55:55;12.77;;;6.32;;
33844;SDS011;20145;43.118;25.694;2023-09-18T04:58:20;8.60;;;6.30;;
33844;SDS011;20145;43.118;25.694;2023-09-18T05:00:47;16.42;;;6.03;;
33844;SDS011;20145;43.118;25.694;2023-09-18T05:03:18;15.13;;;5.40;;
33844;SDS011;20145;43.118;25.694;2023-09-18T05:05:43;14.73;;;5.40;;
33844;SDS011;20145;43.118;25.694;2023-09-18T05:08:09;14.57;;;5.55;;
33844;SDS011;20145;43.118;25.694;2023-09-18T05:10:34;10.02;;;5.03;;
33844;SDS011;20145;43.118;25.694;2023-09-18T05:13:02;8.80;;;5.80;;
33844;SDS011;20145;43.118;25.694;2023-09-18T05:15:28;13.73;;;6.00;;
33844;SDS011;20145;43.118;25.694;2023-09-18T05:17:58;10.18;;;6.07;;
33844;SDS011;20145;43.118;25.694;2023-09-18T05:20:25;7.32;;;4.65;;
33844;SDS011;20145;43.118;25.694;2023-09-18T05:22:52;15.02;;;6.30;;
33844;SDS011;20145;43.118;25.694;2023-09-18T05:25:23;8.65;;;4.75;;
33844;SDS011;20145;43.118;25.694;2023-09-18T05:27:51;7.50;;;4.13;;
33844;SDS011;20145;43.118;25.694;2023-09-18T05:30:25;9.95;;;4.10;;
33844;SDS011;20145;43.118;25.694;2023-09-18T05:32:56;9.52;;;3.80;;
33844;SDS011;20145;43.118;25.694;2023-09-18T05:35:29;7.30;;;4.10;;
33844;SDS011;20145;43.118;25.694;2023-09-18T05:37:55;8.23;;;3.97;;
33844;SDS011;20145;43.118;25.694;2023-09-18T05:40:22;4.55;;;3.47;;
33844;SDS011;20145;43.118;25.694;2023-09-18T05:42:48;8.15;;;3.70;;
33844;SDS011;20145;43.118;25.694;2023-09-18T05:45:14;7.00;;;3.60;;
33844;SDS011;20145;43.118;25.694;2023-09-18T05:47:40;5.03;;;3.28;;
33844;SDS011;20145;43.118;25.694;2023-09-18T05:50:10;6.18;;;3.65;;
33844;SDS011;20145;43.118;25.694;2023-09-18T05:52:41;9.43;;;3.65;;
33844;SDS011;20145;43.118;25.694;2023-09-18T05:55:07;9.13;;;3.90;;
33844;SDS011;20145;43.118;25.694;2023-09-18T05:57:34;6.50;;;3.90;;
33844;SDS011;20145;43.118;25.694;2023-09-18T05:59:59;6.85;;;3.85;;
33844;SDS011;20145;43.118;25.694;2023-09-18T06:02:25;5.57;;;3.75;;
33844;SDS011;20145;43.118;25.694;2023-09-18T06:05:00;5.63;;;3.63;;
33844;SDS011;20145;43.118;25.694;2023-09-18T06:07:27;6.50;;;3.88;;
33844;SDS011;20145;43.118;25.694;2023-09-18T06:09:53;8.38;;;3.90;;
33844;SDS011;20145;43.118;25.694;2023-09-18T06:12:18;7.78;;;4.10;;
33844;SDS011;20145;43.118;25.694;2023-09-18T06:14:44;7.47;;;4.03;;
33844;SDS011;20145;43.118;25.694;2023-09-18T06:17:11;6.53;;;4.22;;
33844;SDS011;20145;43.118;25.694;2023-09-18T06:19:37;6.57;;;4.47;;
33844;SDS011;20145;43.118;25.694;2023-09-18T06:22:04;8.35;;;4.18;;
33844;SDS011;20145;43.118;25.694;2023-09-18T06:24:29;4.57;;;3.40;;
33844;SDS011;20145;43.118;25.694;2023-09-18T06:26:55;9.50;;;4.25;;
33844;SDS011;20145;43.118;25.694;2023-09-18T06:29:20;4.82;;;3.28;;
33844;SDS011;20145;43.118;25.694;2023-09-18T06:31:46;4.38;;;3.20;;
33844;SDS011;20145;43.118;25.694;2023-09-18T06:34:12;9.05;;;3.63;;
33844;SDS011;20145;43.118;25.694;2023-09-18T06:36:37;6.97;;;3.75;;
33844;SDS011;20145;43.118;25.694;2023-09-18T06:39:03;9.50;;;3.40;;
33844;SDS011;20145;43.118;25.694;2023-09-18T06:41:28;8.27;;;4.00;;
33844;SDS011;20145;43.118;25.694;2023-09-18T06:43:54;9.88;;;3.70;;
33844;SDS011;20145;43.118;25.694;2023-09-18T06:46:19;7.80;;;3.90;;
33844;SDS011;20145;43.118;25.694;2023-09-18T06:48:45;8.32;;;4.38;;
33844;SDS011;20145;43.118;25.694;2023-09-18T06:51:14;5.70;;;3.83;;
33844;SDS011;20145;43.118;25.694;2023-09-18T06:53:40;7.75;;;3.60;;
33844;SDS011;20145;43.118;25.694;2023-09-18T06:56:06;5.93;;;3.22;;
33844;SDS011;20145;43.118;25.694;2023-09-18T06:58:31;5.38;;;3.38;;
33844;SDS011;20145;43.118;25.694;2023-09-18T07:00:57;11.38;;;3.92;;
33844;SDS011;20145;43.118;25.694;2023-09-18T07:03:23;6.47;;;3.72;;
33844;SDS011;20145;43.118;25.694;2023-09-18T07:05:48;7.55;;;3.42;;
33844;SDS011;20145;43.118;25.694;2023-09-18T07:08:14;6.40;;;3.08;;
33844;SDS011;20145;43.118;25.694;2023-09-18T07:10:44;7.28;;;3.60;;
33844;SDS011;20145;43.118;25.694;2023-09-18T07:13:09;9.48;;;3.58;;
33844;SDS011;20145;43.118;25.694;2023-09-18T07:15:36;5.38;;;3.33;;
33844;SDS011;20145;43.118;25.694;2023-09-18T07:18:02;9.05;;;2.90;;
33844;SDS011;20145;43.118;25.694;2023-09-18T07:20:28;4.13;;;2.88;;
33844;SDS011;20145;43.118;25.694;2023-09-18T07:22:55;4.05;;;3.60;;
33844;SDS011;20145;43.118;25.694;2023-09-18T07:25:21;5.28;;;3.33;;
33844;SDS011;20145;43.118;25.694;2023-09-18T07:27:46;4.47;;;2.83;;
33844;SDS011;20145;43.118;25.694;2023-09-18T07:30:12;3.72;;;2.92;;
33844;SDS011;20145;43.118;25.694;2023-09-18T07:32:44;5.25;;;3.20;;
33844;SDS011;20145;43.118;25.694;2023-09-18T07:35:11;4.32;;;3.13;;
33844;SDS011;20145;43.118;25.694;2023-09-18T07:37:38;5.90;;;3.13;;
33844;SDS011;20145;43.118;25.694;2023-09-18T07:40:05;4.68;;;2.97;;
33844;SDS011;20145;43.118;25.694;2023-09-18T07:42:31;5.60;;;3.17;;
33844;SDS011;20145;43.118;25.694;2023-09-18T07:44:57;3.70;;;3.15;;
33844;SDS011;20145;43.118;25.694;2023-09-18T07:47:23;5.25;;;3.20;;
33844;SDS011;20145;43.118;25.694;2023-09-18T07:49:48;3.83;;;2.70;;
33844;SDS011;20145;43.118;25.694;2023-09-18T07:52:14;5.60;;;3.17;;
33844;SDS011;20145;43.118;25.694;2023-09-18T07:54:40;4.07;;;2.97;;
33844;SDS011;20145;43.118;25.694;2023-09-18T07:57:06;6.50;;;3.22;;
33844;SDS011;20145;43.118;25.694;2023-09-18T07:59:34;5.60;;;3.13;;
33844;SDS011;20145;43.118;25.694;2023-09-18T08:02:01;5.70;;;3.45;;
33844;SDS011;20145;43.118;25.694;2023-09-18T08:04:27;5.55;;;3.40;;
33844;SDS011;20145;43.118;25.694;2023-09-18T08:06:52;5.18;;;3.15;;
33844;SDS011;20145;43.118;25.694;2023-09-18T08:09:18;7.05;;;3.30;;
33844;SDS011;20145;43.118;25.694;2023-09-18T08:11:43;7.53;;;3.95;;
33844;SDS011;20145;43.118;25.694;2023-09-18T08:14:09;3.97;;;3.60;;
33844;SDS011;20145;43.118;25.694;2023-09-18T08:16:35;5.75;;;4.05;;
33844;SDS011;20145;43.118;25.694;2023-09-18T08:19:02;6.68;;;4.40;;
33844;SDS011;20145;43.118;25.694;2023-09-18T08:21:28;4.55;;;3.63;;
33844;SDS011;20145;43.118;25.694;2023-09-18T08:23:56;5.82;;;3.75;;
33844;SDS011;20145;43.118;25.694;2023-09-18T08:26:22;6.53;;;4.05;;
33844;SDS011;20145;43.118;25.694;2023-09-18T08:28:48;5.72;;;3.70;;
33844;SDS011;20145;43.118;25.694;2023-09-18T08:31:13;5.45;;;3.55;;
33844;SDS011;20145;43.118;25.694;2023-09-18T08:33:41;4.03;;;3.53;;
33844;SDS011;20145;43.118;25.694;2023-09-18T08:36:07;4.50;;;3.88;;
33844;SDS011;20145;43.118;25.694;2023-09-18T08:38:33;6.10;;;3.40;;
33844;SDS011;20145;43.118;25.694;2023-09-18T08:40:58;4.35;;;3.85;;
33844;SDS011;20145;43.118;25.694;2023-09-18T08:43:24;11.50;;;3.80;;
33844;SDS011;20145;43.118;25.694;2023-09-18T08:45:51;4.22;;;3.83;;
33844;SDS011;20145;43.118;25.694;2023-09-18T08:48:19;7.28;;;4.68;;
33844;SDS011;20145;43.118;25.694;2023-09-18T08:50:45;11.65;;;4.45;;
33844;SDS011;20145;43.118;25.694;2023-09-18T08:53:12;6.13;;;4.38;;
33844;SDS011;20145;43.118;25.694;2023-09-18T08:55:38;5.00;;;4.10;;
33844;SDS011;20145;43.118;25.694;2023-09-18T08:58:06;6.55;;;4.40;;
33844;SDS011;20145;43.118;25.694;2023-09-18T09:00:33;4.63;;;4.22;;
33844;SDS011;20145;43.118;25.694;2023-09-18T09:03:02;11.60;;;4.40;;
33844;SDS011;20145;43.118;25.694;2023-09-18T09:05:30;7.45;;;4.38;;
33844;SDS011;20145;43.118;25.694;2023-09-18T09:07:56;6.38;;;4.88;;
33844;SDS011;20145;43.118;25.694;2023-09-18T09:10:22;5.05;;;4.03;;
33844;SDS011;20145;43.118;25.694;2023-09-18T09:15:15;6.80;;;3.80;;
33844;SDS011;20145;43.118;25.694;2023-09-18T09:17:41;6.47;;;4.10;;
33844;SDS011;20145;43.118;25.694;2023-09-18T09:20:09;8.57;;;5.07;;
33844;SDS011;20145;43.118;25.694;2023-09-18T09:22:39;5.50;;;4.55;;
33844;SDS011;20145;43.118;25.694;2023-09-18T09:27:51;4.63;;;4.15;;
33844;SDS011;20145;43.118;25.694;2023-09-18T09:30:19;6.53;;;4.95;;
33844;SDS011;20145;43.118;25.694;2023-09-18T09:32:49;7.15;;;3.85;;
33844;SDS011;20145;43.118;25.694;2023-09-18T09:35:20;4.38;;;3.90;;
33844;SDS011;20145;43.118;25.694;2023-09-18T09:37:46;6.07;;;4.35;;
33844;SDS011;20145;43.118;25.694;2023-09-18T09:40:13;8.95;;;4.22;;
33844;SDS011;20145;43.118;25.694;2023-09-18T09:42:40;4.93;;;4.20;;
33844;SDS011;20145;43.118;25.694;2023-09-18T09:45:13;5.90;;;3.90;;
33844;SDS011;20145;43.118;25.694;2023-09-18T09:47:42;4.85;;;3.97;;
33844;SDS011;20145;43.118;25.694;2023-09-18T09:50:15;4.70;;;3.70;;
33844;SDS011;20145;43.118;25.694;2023-09-18T09:52:47;6.60;;;4.75;;
33844;SDS011;20145;43.118;25.694;2023-09-18T09:57:50;5.53;;;4.93;;
33844;SDS011;20145;43.118;25.694;2023-09-18T10:00:17;6.10;;;4.38;;
33844;SDS011;20145;43.118;25.694;2023-09-18T10:02:59;6.43;;;4.20;;
33844;SDS011;20145;43.118;25.694;2023-09-18T10:05:28;4.65;;;3.97;;
33844;SDS011;20145;43.118;25.694;2023-09-18T10:07:57;5.03;;;3.63;;
33844;SDS011;20145;43.118;25.694;2023-09-18T10:10:26;8.65;;;4.13;;
33844;SDS011;20145;43.118;25.694;2023-09-18T10:12:57;6.07;;;4.35;;
33844;SDS011;20145;43.118;25.694;2023-09-18T10:15:27;7.10;;;4.25;;
33844;SDS011;20145;43.118;25.694;2023-09-18T10:17:56;4.38;;;3.60;;
33844;SDS011;20145;43.118;25.694;2023-09-18T10:20:25;6.97;;;3.90;;
33844;SDS011;20145;43.118;25.694;2023-09-18T10:22:54;6.70;;;3.58;;
33844;SDS011;20145;43.118;25.694;2023-09-18T10:25:26;6.07;;;4.25;;
33844;SDS011;20145;43.118;25.694;2023-09-18T10:27:56;3.80;;;3.30;;
33844;SDS011;20145;43.118;25.694;2023-09-18T10:30:27;10.07;;;4.25;;
33844;SDS011;20145;43.118;25.694;2023-09-18T10:32:54;7.18;;;4.00;;
33844;SDS011;20145;43.118;25.694;2023-09-18T10:35:24;5.22;;;4.03;;
33844;SDS011;20145;43.118;25.694;2023-09-18T10:37:50;6.45;;;3.78;;
33844;SDS011;20145;43.118;25.694;2023-09-18T10:40:20;4.40;;;4.00;;
33844;SDS011;20145;43.118;25.694;2023-09-18T10:42:47;4.00;;;3.53;;
33844;SDS011;20145;43.118;25.694;2023-09-18T10:45:14;4.97;;;3.63;;
33844;SDS011;20145;43.118;25.694;2023-09-18T10:47:44;4.70;;;3.80;;
33844;SDS011;20145;43.118;25.694;2023-09-18T10:50:12;4.85;;;4.20;;
33844;SDS011;20145;43.118;25.694;2023-09-18T10:52:49;7.40;;;3.60;;
33844;SDS011;20145;43.118;25.694;2023-09-18T10:55:14;4.00;;;3.33;;
33844;SDS011;20145;43.118;25.694;2023-09-18T10:57:53;5.55;;;3.92;;
33844;SDS011;20145;43.118;25.694;2023-09-18T11:00:20;5.05;;;3.97;;
33844;SDS011;20145;43.118;25.694;2023-09-18T11:02:54;6.20;;;4.03;;
33844;SDS011;20145;43.118;25.694;2023-09-18T11:05:35;4.00;;;3.70;;
33844;SDS011;20145;43.118;25.694;2023-09-18T11:11:10;3.92;;;3.53;;
33844;SDS011;20145;43.118;25.694;2023-09-18T11:18:52;4.20;;;3.80;;
33844;SDS011;20145;43.118;25.694;2023-09-18T11:21:28;4.30;;;3.70;;
33844;SDS011;20145;43.118;25.694;2023-09-18T11:23:58;5.15;;;3.70;;
33844;SDS011;20145;43.118;25.694;2023-09-18T11:26:32;4.38;;;3.20;;
33844;SDS011;20145;43.118;25.694;2023-09-18T11:29:04;4.82;;;3.35;;
33844;SDS011;20145;43.118;25.694;2023-09-18T11:31:47;6.28;;;4.07;;
33844;SDS011;20145;43.118;25.694;2023-09-18T11:34:26;7.03;;;3.65;;
33844;SDS011;20145;43.118;25.694;2023-09-18T11:37:20;5.85;;;3.83;;
33844;SDS011;20145;43.118;25.694;2023-09-18T11:39:46;6.32;;;3.38;;
33844;SDS011;20145;43.118;25.694;2023-09-18T11:42:16;6.25;;;3.88;;
33844;SDS011;20145;43.118;25.694;2023-09-18T11:44:44;3.42;;;3.13;;
33844;SDS011;20145;43.118;25.694;2023-09-18T11:47:13;4.97;;;3.30;;
33844;SDS011;20145;43.118;25.694;2023-09-18T11:49:52;5.07;;;3.53;;
33844;SDS011;20145;43.118;25.694;2023-09-18T11:52:27;4.45;;;3.08;;
33844;SDS011;20145;43.118;25.694;2023-09-18T11:54:57;6.30;;;3.00;;
33844;SDS011;20145;43.118;25.694;2023-09-18T11:57:24;5.80;;;3.33;;
33844;SDS011;20145;43.118;25.694;2023-09-18T11:59:50;4.05;;;3.22;;
33844;SDS011;20145;43.118;25.694;2023-09-18T12:02:26;4.68;;;3.30;;
33844;SDS011;20145;43.118;25.694;2023-09-18T12:05:10;4.50;;;2.95;;
33844;SDS011;20145;43.118;25.694;2023-09-18T12:07:39;6.22;;;3.58;;
33844;SDS011;20145;43.118;25.694;2023-09-18T12:10:09;4.18;;;3.40;;
33844;SDS011;20145;43.118;25.694;2023-09-18T12:12:36;4.05;;;3.40;;
33844;SDS011;20145;43.118;25.694;2023-09-18T12:15:01;3.67;;;3.00;;
33844;SDS011;20145;43.118;25.694;2023-09-18T12:17:28;4.90;;;3.20;;
33844;SDS011;20145;43.118;25.694;2023-09-18T12:19:54;4.00;;;3.13;;
33844;SDS011;20145;43.118;25.694;2023-09-18T12:22:26;3.38;;;2.90;;
33844;SDS011;20145;43.118;25.694;2023-09-18T12:24:53;5.75;;;3.20;;
33844;SDS011;20145;43.118;25.694;2023-09-18T12:27:35;4.47;;;2.83;;
33844;SDS011;20145;43.118;25.694;2023-09-18T12:30:01;5.47;;;3.08;;
33844;SDS011;20145;43.118;25.694;2023-09-18T12:32:29;4.28;;;3.30;;
33844;SDS011;20145;43.118;25.694;2023-09-18T12:34:55;3.55;;;3.25;;
33844;SDS011;20145;43.118;25.694;2023-09-18T12:37:21;3.92;;;2.90;;
33844;SDS011;20145;43.118;25.694;2023-09-18T12:39:47;3.15;;;2.85;;
33844;SDS011;20145;43.118;25.694;2023-09-18T12:42:17;4.20;;;3.13;;
33844;SDS011;20145;43.118;25.694;2023-09-18T12:44:46;6.22;;;3.63;;
33844;SDS011;20145;43.118;25.694;2023-09-18T12:47:12;3.63;;;3.30;;
33844;SDS011;20145;43.118;25.694;2023-09-18T12:49:38;4.82;;;3.88;;
33844;SDS011;20145;43.118;25.694;2023-09-18T12:52:05;5.78;;;3.28;;
33844;SDS011;20145;43.118;25.694;2023-09-18T12:54:43;6.30;;;2.95;;
33844;SDS011;20145;43.118;25.694;2023-09-18T12:57:11;7.03;;;3.30;;
33844;SDS011;20145;43.118;25.694;2023-09-18T12:59:41;4.90;;;3.27;;
33844;SDS011;20145;43.118;25.694;2023-09-18T13:02:06;5.28;;;3.53;;
33844;SDS011;20145;43.118;25.694;2023-09-18T13:04:35;3.50;;;3.20;;
33844;SDS011;20145;43.118;25.694;2023-09-18T13:09:29;4.32;;;3.20;;
33844;SDS011;20145;43.118;25.694;2023-09-18T13:11:55;4.97;;;3.38;;
33844;SDS011;20145;43.118;25.694;2023-09-18T13:14:22;4.35;;;3.95;;
33844;SDS011;20145;43.118;25.694;2023-09-18T13:16:48;3.55;;;2.97;;
33844;SDS011;20145;43.118;25.694;2023-09-18T13:19:13;5.25;;;3.60;;
33844;SDS011;20145;43.118;25.694;2023-09-18T13:21:45;4.05;;;3.47;;
33844;SDS011;20145;43.118;25.694;2023-09-18T13:24:23;4.05;;;3.53;;
33844;SDS011;20145;43.118;25.694;2023-09-18T13:26:52;6.13;;;3.90;;
33844;SDS011;20145;43.118;25.694;2023-09-18T13:29:19;6.88;;;3.60;;
33844;SDS011;20145;43.118;25.694;2023-09-18T13:31:44;4.90;;;3.17;;
33844;SDS011;20145;43.118;25.694;2023-09-18T13:34:10;3.33;;;3.03;;
33844;SDS011;20145;43.118;25.694;2023-09-18T13:36:36;4.28;;;3.88;;
33844;SDS011;20145;43.118;25.694;2023-09-18T13:39:03;4.63;;;3.53;;
33844;SDS011;20145;43.118;25.694;2023-09-18T13:41:29;5.47;;;3.70;;
33844;SDS011;20145;43.118;25.694;2023-09-18T13:43:56;6.35;;;3.47;;
33844;SDS011;20145;43.118;25.694;2023-09-18T13:46:22;4.07;;;3.42;;
33844;SDS011;20145;43.118;25.694;2023-09-18T13:48:48;5.63;;;3.90;;
33844;SDS011;20145;43.118;25.694;2023-09-18T13:51:14;5.07;;;4.20;;
33844;SDS011;20145;43.118;25.694;2023-09-18T13:53:39;5.20;;;4.20;;
33844;SDS011;20145;43.118;25.694;2023-09-18T13:56:06;5.13;;;3.72;;
33844;SDS011;20145;43.118;25.694;2023-09-18T13:58:32;4.85;;;3.55;;
33844;SDS011;20145;43.118;25.694;2023-09-18T14:00:58;4.88;;;3.33;;
33844;SDS011;20145;43.118;25.694;2023-09-18T14:03:24;4.10;;;3.33;;
33844;SDS011;20145;43.118;25.694;2023-09-18T14:05:50;4.38;;;3.60;;
33844;SDS011;20145;43.118;25.694;2023-09-18T14:08:15;9.27;;;3.70;;
33844;SDS011;20145;43.118;25.694;2023-09-18T14:10:43;5.35;;;3.60;;
33844;SDS011;20145;43.118;25.694;2023-09-18T14:13:08;4.50;;;3.83;;
33844;SDS011;20145;43.118;25.694;2023-09-18T14:15:34;4.88;;;4.13;;
33844;SDS011;20145;43.118;25.694;2023-09-18T14:18:00;6.40;;;4.07;;
33844;SDS011;20145;43.118;25.694;2023-09-18T14:20:25;4.35;;;3.90;;
33844;SDS011;20145;43.118;25.694;2023-09-18T14:22:51;4.88;;;3.40;;
33844;SDS011;20145;43.118;25.694;2023-09-18T14:25:16;3.92;;;3.50;;
33844;SDS011;20145;43.118;25.694;2023-09-18T14:27:44;6.97;;;4.00;;
33844;SDS011;20145;43.118;25.694;2023-09-18T14:30:10;5.68;;;3.85;;
33844;SDS011;20145;43.118;25.694;2023-09-18T14:32:38;4.18;;;3.45;;
33844;SDS011;20145;43.118;25.694;2023-09-18T14:35:04;4.65;;;3.17;;
33844;SDS011;20145;43.118;25.694;2023-09-18T14:37:33;5.32;;;3.25;;
33844;SDS011;20145;43.118;25.694;2023-09-18T14:39:59;4.30;;;3.13;;
33844;SDS011;20145;43.118;25.694;2023-09-18T14:42:25;8.90;;;3.90;;
33844;SDS011;20145;43.118;25.694;2023-09-18T14:44:50;5.80;;;3.72;;
33844;SDS011;20145;43.118;25.694;2023-09-18T14:47:16;4.22;;;3.20;;
33844;SDS011;20145;43.118;25.694;2023-09-18T14:49:41;5.63;;;3.75;;
33844;SDS011;20145;43.118;25.694;2023-09-18T14:52:11;5.70;;;4.78;;
33844;SDS011;20145;43.118;25.694;2023-09-18T14:54:37;4.70;;;4.18;;
33844;SDS011;20145;43.118;25.694;2023-09-18T14:57:02;5.72;;;3.38;;
33844;SDS011;20145;43.118;25.694;2023-09-18T14:59:28;6.70;;;3.92;;
33844;SDS011;20145;43.118;25.694;2023-09-18T15:01:54;6.57;;;3.70;;